Time;durP1;ratioP1;P1;durP2;ratioP2;P2;SDS_P1;SDS_P2;PMS_P1;PMS_P2;Temp;Humidity;BMP_temperature;BMP_pressure;BME280_temperature;BME280_humidity;BME280_pressure;Samples;Min_cycle;Max_cycle;Signal;HPM_P1;HPM_P2
2023/05/13 00:01:42;;;;;;;7.50;4.80;;;;;;;11.40;60.51;99152.75;225439;1279;22562;-77
2023/05/13 00:06:51;;;;;;;7.60;4.80;;;;;;;11.32;60.94;99144.95;225332;1281;22594;-76
2023/05/13 00:11:56;;;;;;;9.10;5.00;;;;;;;11.24;61.74;99144.21;225444;1281;22537;-76
2023/05/13 00:17:03;;;;;;;5.70;4.70;;;;;;;11.19;61.89;99147.64;225373;1283;22551;-75
2023/05/13 00:22:12;;;;;;;8.30;4.70;;;;;;;11.16;62.23;99149.25;225328;1281;22547;-73
2023/05/13 00:27:19;;;;;;;6.60;5.30;;;;;;;11.15;62.54;99145.85;225313;1283;22535;-76
2023/05/13 00:32:27;;;;;;;6.00;5.10;;;;;;;11.16;63.02;99145.13;225419;1280;24329;-74
2023/05/13 00:37:30;;;;;;;6.40;5.30;;;;;;;11.16;63.21;99148.89;225374;1281;22489;-74
2023/05/13 00:42:36;;;;;;;6.50;5.30;;;;;;;11.18;63.58;99149.80;225344;1283;22558;-75
2023/05/13 00:47:39;;;;;;;7.70;4.60;;;;;;;11.18;63.84;99155.41;225465;1278;24928;-74
2023/05/13 00:52:56;;;;;;;6.20;4.70;;;;;;;11.19;64.15;99151.61;225378;1283;22552;-74
2023/05/13 00:58:10;;;;;;;7.70;5.90;;;;;;;11.20;64.34;99156.06;225427;1280;22538;-74
2023/05/13 01:03:28;;;;;;;5.90;4.60;;;;;;;11.21;64.63;99156.85;225333;1282;22588;-75
2023/05/13 01:08:51;;;;;;;6.40;4.70;;;;;;;11.23;64.95;99157.33;225411;1280;22553;-76
2023/05/13 01:14:03;;;;;;;6.00;5.00;;;;;;;11.26;65.35;99160.23;225488;1283;22548;-75
2023/05/13 01:19:26;;;;;;;6.60;4.40;;;;;;;11.30;65.48;99162.70;225451;1281;22559;-74
2023/05/13 01:24:28;;;;;;;8.40;4.90;;;;;;;11.36;65.80;99169.60;225358;1280;22539;-76
2023/05/13 01:29:32;;;;;;;6.10;5.20;;;;;;;11.41;65.86;99169.63;225476;1281;22550;-74
2023/05/13 01:34:45;;;;;;;6.80;6.10;;;;;;;11.44;66.04;99172.36;225459;1276;25240;-76
2023/05/13 01:39:48;;;;;;;6.70;5.20;;;;;;;11.44;66.15;99166.84;225467;1280;22566;-76
2023/05/13 01:44:55;;;;;;;7.00;5.80;;;;;;;11.47;65.90;99170.82;225499;1280;22557;-76
2023/05/13 01:50:12;;;;;;;7.40;6.30;;;;;;;11.48;65.78;99174.42;225502;1283;24249;-75
2023/05/13 01:55:29;;;;;;;7.70;6.00;;;;;;;11.48;65.52;99175.60;225511;1281;22541;-75
2023/05/13 02:00:33;;;;;;;8.10;6.50;;;;;;;11.44;65.43;99172.14;225496;1281;25282;-75
2023/05/13 02:05:35;;;;;;;10.90;6.80;;;;;;;11.40;65.69;99169.40;225493;1277;25545;-74
2023/05/13 02:10:38;;;;;;;9.70;6.50;;;;;;;11.31;65.52;99173.75;225499;1281;22555;-75
2023/05/13 02:15:41;;;;;;;10.50;6.30;;;;;;;11.20;65.34;99175.44;225466;1281;25933;-75
2023/05/13 02:20:43;;;;;;;8.80;7.20;;;;;;;11.09;65.23;99176.79;225493;1259;22547;-75
2023/05/13 02:25:53;;;;;;;8.90;6.70;;;;;;;11.02;65.26;99175.20;225454;1280;25278;-75
2023/05/13 02:30:58;;;;;;;10.50;6.50;;;;;;;10.97;65.77;99179.46;225370;1283;22563;-75
2023/05/13 02:36:01;;;;;;;8.50;5.40;;;;;;;10.91;65.30;99171.23;225341;1281;22546;-75
2023/05/13 02:41:03;;;;;;;8.60;5.80;;;;;;;10.88;65.50;99172.75;225495;1279;22559;-75
2023/05/13 02:46:06;;;;;;;10.90;6.70;;;;;;;10.85;65.49;99175.72;225505;1281;22547;-74
2023/05/13 02:51:12;;;;;;;10.10;6.30;;;;;;;10.81;65.21;99174.65;225390;1283;22640;-76
2023/05/13 02:56:16;;;;;;;7.60;5.70;;;;;;;10.75;65.34;99178.98;225419;1281;22974;-76
2023/05/13 03:01:18;;;;;;;11.00;6.50;;;;;;;10.69;65.18;99187.08;225371;1282;22581;-76
2023/05/13 03:06:24;;;;;;;10.00;6.40;;;;;;;10.66;64.96;99191.81;225468;1283;22536;-75
2023/05/13 03:11:26;;;;;;;13.60;6.50;;;;;;;10.62;65.14;99191.33;225402;1283;22611;-76
2023/05/13 03:16:29;;;;;;;13.40;6.50;;;;;;;10.57;65.69;99191.70;225453;1283;22571;-74
2023/05/13 03:21:31;;;;;;;11.80;6.60;;;;;;;10.52;65.50;99191.55;225330;1283;22539;-75
2023/05/13 03:26:39;;;;;;;10.20;6.60;;;;;;;10.45;65.96;99191.83;225383;1283;22548;-74
2023/05/13 03:31:42;;;;;;;10.50;6.40;;;;;;;10.40;66.10;99192.17;225459;1278;22555;-75
2023/05/13 03:36:44;;;;;;;12.40;6.80;;;;;;;10.35;66.05;99197.33;225371;1281;22543;-75
2023/05/13 03:41:54;;;;;;;9.40;6.90;;;;;;;10.33;66.26;99204.20;225347;1283;22551;-77
2023/05/13 03:47:00;;;;;;;13.40;7.20;;;;;;;10.32;66.64;99214.73;225516;1281;22565;-76
2023/05/13 03:52:12;;;;;;;9.10;6.90;;;;;;;10.25;66.25;99216.90;225352;1282;22586;-76
2023/05/13 03:57:15;;;;;;;12.00;7.90;;;;;;;10.16;66.54;99221.91;225485;1281;22536;-76
2023/05/13 04:02:21;;;;;;;11.30;8.10;;;;;;;10.11;66.80;99227.11;225468;1281;22548;-75
2023/05/13 04:07:27;;;;;;;12.50;8.00;;;;;;;10.13;67.00;99231.42;225353;1283;22543;-76
2023/05/13 04:12:32;;;;;;;11.50;7.40;;;;;;;10.18;67.24;99229.67;225392;1281;22544;-73
2023/05/13 04:17:49;;;;;;;12.20;8.10;;;;;;;10.19;66.85;99233.77;225478;1283;22715;-74
2023/05/13 04:22:51;;;;;;;10.40;7.40;;;;;;;10.23;67.41;99237.38;225527;1281;22571;-75
2023/05/13 04:27:54;;;;;;;9.10;7.00;;;;;;;10.27;67.47;99241.27;225499;1280;22661;-75
2023/05/13 04:33:02;;;;;;;12.60;7.60;;;;;;;10.31;67.64;99246.86;225393;1281;22552;-74
2023/05/13 04:38:05;;;;;;;12.30;7.00;;;;;;;10.36;67.23;99254.17;225490;1283;22535;-75
2023/05/13 04:43:07;;;;;;;12.00;7.40;;;;;;;10.40;67.78;99257.77;225311;1281;22563;-74
2023/05/13 04:48:16;;;;;;;11.70;7.50;;;;;;;10.42;67.77;99261.05;225410;1283;22572;-74
2023/05/13 04:53:19;;;;;;;9.80;8.00;;;;;;;10.45;67.64;99270.02;225313;1281;23309;-76
2023/05/13 04:58:24;;;;;;;10.60;7.60;;;;;;;10.50;68.13;99272.08;225415;1281;22550;-74
2023/05/13 05:03:30;;;;;;;10.20;7.30;;;;;;;10.59;67.98;99270.03;225460;1281;25393;-75
2023/05/13 05:08:34;;;;;;;9.30;8.20;;;;;;;10.71;68.38;99271.50;225451;1278;22557;-74
2023/05/13 05:13:37;;;;;;;11.50;7.70;;;;;;;10.83;68.14;99275.58;225343;1281;22541;-75
2023/05/13 05:18:42;;;;;;;10.30;8.70;;;;;;;10.93;68.34;99279.13;225340;1281;22557;-74
2023/05/13 05:23:48;;;;;;;12.10;9.20;;;;;;;11.04;68.41;99286.09;225435;1283;22542;-75
2023/05/13 05:28:52;;;;;;;11.50;9.20;;;;;;;11.17;68.65;99286.84;225493;1279;22530;-75
2023/05/13 05:33:55;;;;;;;11.80;9.00;;;;;;;11.35;68.62;99283.50;225362;1283;22543;-75
2023/05/13 05:38:57;;;;;;;12.60;9.60;;;;;;;11.58;68.62;99285.83;225352;1281;22544;-76
2023/05/13 05:44:06;;;;;;;12.60;9.00;;;;;;;11.87;68.35;99285.48;225320;1281;22563;-74
2023/05/13 05:49:08;;;;;;;11.60;8.90;;;;;;;12.11;68.03;99288.08;225317;1283;22543;-74
2023/05/13 05:54:14;;;;;;;13.80;10.50;;;;;;;12.36;67.75;99293.59;225390;1283;22682;-75
2023/05/13 05:59:19;;;;;;;13.20;10.00;;;;;;;12.63;67.72;99290.05;225512;1283;22555;-75
2023/05/13 06:04:23;;;;;;;11.00;9.10;;;;;;;12.91;67.31;99291.45;225360;1281;24354;-75
2023/05/13 06:09:29;;;;;;;13.50;10.20;;;;;;;13.12;66.73;99292.52;225466;1283;22544;-75
2023/05/13 06:14:31;;;;;;;16.10;12.30;;;;;;;13.36;66.51;99295.90;225326;1283;22652;-75
2023/05/13 06:19:34;;;;;;;14.10;10.60;;;;;;;13.64;66.06;99295.44;225425;1283;22548;-74
2023/05/13 06:24:41;;;;;;;13.50;10.70;;;;;;;13.97;65.98;99303.06;225451;1283;22564;-74
2023/05/13 06:29:44;;;;;;;13.20;11.00;;;;;;;14.16;65.44;99302.73;225432;1282;22562;-75
2023/05/13 06:34:47;;;;;;;12.80;10.50;;;;;;;14.23;64.98;99307.19;225310;1283;23214;-75
2023/05/13 06:39:50;;;;;;;12.80;10.10;;;;;;;14.23;64.83;99302.37;225327;1283;22547;-76
2023/05/13 06:44:52;;;;;;;11.60;9.10;;;;;;;14.25;64.47;99303.19;225342;1275;22965;-73
2023/05/13 06:50:02;;;;;;;11.80;8.00;;;;;;;14.39;64.49;99306.56;225227;1278;22573;-77
2023/05/13 06:55:09;;;;;;;11.70;8.00;;;;;;;14.59;64.23;99307.91;225290;1282;25337;-77
2023/05/13 07:00:17;;;;;;;11.00;7.20;;;;;;;14.80;63.95;99309.77;225100;1275;23007;-75
2023/05/13 07:05:25;;;;;;;8.90;7.40;;;;;;;15.03;63.59;99300.08;225005;1261;26207;-74
2023/05/13 07:10:39;;;;;;;6.90;6.20;;;;;;;15.26;62.83;99298.70;224862;1271;25333;-75
2023/05/13 07:15:52;;;;;;;8.70;7.20;;;;;;;15.41;62.29;99296.48;225115;1279;22552;-75
2023/05/13 07:21:03;;;;;;;8.70;6.00;;;;;;;15.54;61.86;99286.84;225039;1276;22625;-75
2023/05/13 07:26:17;;;;;;;7.50;5.30;;;;;;;15.74;62.07;99282.96;225122;1262;22543;-74
2023/05/13 07:31:29;;;;;;;7.40;4.50;;;;;;;16.03;60.99;99282.31;225005;1279;22600;-75
2023/05/13 07:36:31;;;;;;;8.10;4.50;;;;;;;16.29;59.60;99279.08;225128;1276;22542;-75
2023/05/13 07:41:35;;;;;;;5.30;4.20;;;;;;;16.46;59.55;99274.69;225110;1264;22560;-75
2023/05/13 07:46:37;;;;;;;4.60;3.70;;;;;;;16.67;58.23;99280.13;224992;1278;22849;-75
2023/05/13 07:51:40;;;;;;;4.80;3.60;;;;;;;16.86;57.72;99269.08;224884;1283;22955;-75
2023/05/13 07:56:46;;;;;;;7.60;3.50;;;;;;;17.08;56.78;99266.04;224875;1281;22540;-75
2023/05/13 08:01:49;;;;;;;3.50;2.70;;;;;;;17.35;56.33;99256.40;225003;1271;22549;-74
2023/05/13 08:06:52;;;;;;;4.40;2.80;;;;;;;17.64;55.16;99261.22;225024;1282;24120;-73
2023/05/13 08:11:57;;;;;;;2.50;2.30;;;;;;;17.97;54.48;99263.42;224914;1273;22559;-75
2023/05/13 08:17:00;;;;;;;3.50;2.50;;;;;;;18.24;53.59;99256.21;225112;1283;24486;-74
2023/05/13 08:22:03;;;;;;;3.20;2.70;;;;;;;18.46;53.28;99258.64;225007;1268;25299;-73
2023/05/13 08:27:16;;;;;;;4.90;2.80;;;;;;;18.54;52.52;99262.06;224980;1269;24236;-73
2023/05/13 08:32:18;;;;;;;2.30;2.10;;;;;;;18.60;52.34;99264.17;224987;1277;22547;-73
2023/05/13 08:37:23;;;;;;;2.70;2.30;;;;;;;18.73;51.44;99263.30;225210;1280;22614;-73
2023/05/13 08:42:31;;;;;;;3.50;2.50;;;;;;;18.81;50.95;99265.58;225157;1277;22589;-74
2023/05/13 08:47:53;;;;;;;3.60;2.50;;;;;;;18.82;50.90;99268.52;225161;1263;22563;-74
2023/05/13 08:53:03;;;;;;;4.60;3.50;;;;;;;18.83;50.49;99266.32;225117;1276;22598;-76
2023/05/13 08:58:06;;;;;;;3.40;2.70;;;;;;;19.05;50.65;99264.54;224938;1263;22551;-75
2023/05/13 09:03:14;;;;;;;3.10;2.70;;;;;;;19.16;50.06;99257.41;225039;1260;22548;-76
2023/05/13 09:08:16;;;;;;;4.80;3.10;;;;;;;19.04;49.86;99260.63;224869;1264;22538;-73
2023/05/13 09:13:18;;;;;;;4.20;2.50;;;;;;;18.78;49.47;99267.20;225146;1260;22649;-73
2023/05/13 09:18:29;;;;;;;4.10;2.70;;;;;;;18.43;49.25;99272.25;225135;1276;25239;-74
2023/05/13 09:23:32;;;;;;;2.70;2.50;;;;;;;18.26;49.80;99268.45;225065;1282;22626;-73
2023/05/13 09:28:34;;;;;;;4.00;2.40;;;;;;;18.44;49.96;99264.67;225064;1276;23002;-74
2023/05/13 09:33:37;;;;;;;4.50;2.90;;;;;;;18.87;49.60;99261.84;225031;1261;22498;-73
2023/05/13 09:38:39;;;;;;;3.60;2.30;;;;;;;19.24;49.17;99258.80;225071;1276;25291;-74
2023/05/13 09:43:42;;;;;;;3.70;2.40;;;;;;;19.58;48.70;99255.19;225118;1282;22551;-74
2023/05/13 09:48:58;;;;;;;3.50;2.30;;;;;;;19.89;48.57;99249.80;225048;1280;22547;-73
2023/05/13 09:54:13;;;;;;;2.70;2.30;;;;;;;19.99;47.40;99256.27;225096;1282;22540;-73
2023/05/13 09:59:17;;;;;;;3.30;2.20;;;;;;;20.00;47.17;99254.34;224975;1275;22552;-73
2023/05/13 10:04:21;;;;;;;5.50;2.00;;;;;;;20.22;47.18;99249.14;225025;1268;22567;-74
2023/05/13 10:09:44;;;;;;;2.70;2.30;;;;;;;20.69;46.51;99246.01;225007;1277;24255;-75
2023/05/13 10:14:51;;;;;;;5.00;3.70;;;;;;;20.84;46.24;99250.40;225060;1261;22609;-74
2023/05/13 10:19:53;;;;;;;3.40;2.30;;;;;;;20.86;45.89;99248.02;225113;1260;22593;-73
2023/05/13 10:25:00;;;;;;;3.10;2.50;;;;;;;20.91;45.98;99238.69;225147;1277;25607;-73
2023/05/13 10:30:08;;;;;;;3.40;2.30;;;;;;;21.11;45.24;99242.72;225023;1277;23065;-74
2023/05/13 10:35:13;;;;;;;5.10;2.60;;;;;;;20.96;44.28;99238.55;225027;1275;22531;-74
2023/05/13 10:40:46;;;;;;;2.40;2.20;;;;;;;20.82;44.72;99240.15;220950;1266;5433280;-73
2023/05/13 10:45:59;;;;;;;3.20;2.70;;;;;;;20.85;44.36;99236.98;225045;1268;22550;-74
2023/05/13 10:51:10;;;;;;;3.60;2.40;;;;;;;20.96;44.29;99240.86;225005;1279;22935;-73
2023/05/13 10:56:13;;;;;;;2.80;2.60;;;;;;;21.41;44.13;99240.84;225050;1270;24397;-74
2023/05/13 11:01:41;;;;;;;2.60;2.40;;;;;;;21.74;43.74;99233.11;224902;1277;22551;-72
2023/05/13 11:06:49;;;;;;;6.80;2.90;;;;;;;22.02;43.04;99241.04;225453;1283;22538;-72
2023/05/13 11:11:55;;;;;;;3.70;2.60;;;;;;;22.11;42.83;99241.31;225169;1283;22556;-73
2023/05/13 11:17:01;;;;;;;3.80;2.80;;;;;;;22.01;42.43;99243.29;225413;1281;22545;-73
2023/05/13 11:22:11;;;;;;;2.60;2.30;;;;;;;21.96;41.96;99237.83;225352;1280;22612;-73
2023/05/13 11:27:16;;;;;;;2.70;2.50;;;;;;;21.76;42.17;99243.48;225323;1282;22551;-73
2023/05/13 11:32:52;;;;;;;3.00;1.90;;;;;;;21.31;42.12;99246.66;225350;1283;22573;-73
2023/05/13 11:37:57;;;;;;;2.60;1.90;;;;;;;21.04;42.45;99243.60;225410;1263;22556;-74
2023/05/13 11:43:03;;;;;;;1.90;1.60;;;;;;;21.32;42.55;99241.19;225387;1277;22558;-73
2023/05/13 11:48:22;;;;;;;6.10;2.30;;;;;;;21.53;41.96;99239.39;225412;1283;22543;-72
2023/05/13 11:53:25;;;;;;;5.60;2.20;;;;;;;21.46;42.11;99238.77;225422;1277;22555;-73
2023/05/13 11:58:27;;;;;;;2.20;2.00;;;;;;;21.60;41.61;99230.48;225290;1279;22533;-73
2023/05/13 12:03:29;;;;;;;4.70;2.40;;;;;;;21.57;41.13;99231.13;225351;1281;22566;-74
2023/05/13 12:08:32;;;;;;;4.40;2.30;;;;;;;21.12;41.35;99231.41;225329;1281;22539;-71
2023/05/13 12:13:35;;;;;;;3.80;2.30;;;;;;;20.72;42.02;99240.95;225388;1283;22658;-72
2023/05/13 12:18:37;;;;;;;5.40;2.20;;;;;;;20.48;41.99;99238.54;225318;1281;24201;-72
2023/05/13 12:23:40;;;;;;;2.20;1.90;;;;;;;20.39;42.28;99246.31;225365;1279;22547;-72
2023/05/13 12:28:42;;;;;;;4.30;2.00;;;;;;;20.56;42.35;99245.29;225319;1280;22539;-73
2023/05/13 12:33:48;;;;;;;3.90;2.00;;;;;;;20.87;42.30;99250.13;225281;1283;22573;-74
2023/05/13 12:39:02;;;;;;;2.20;2.00;;;;;;;21.28;41.98;99248.86;225368;1279;22549;-71
2023/05/13 12:44:17;;;;;;;4.30;2.10;;;;;;;21.44;41.51;99247.48;225395;1283;22769;-72
2023/05/13 12:49:21;;;;;;;5.60;2.10;;;;;;;21.46;41.30;99249.80;225346;1283;22543;-72
2023/05/13 12:54:24;;;;;;;3.40;2.30;;;;;;;21.40;41.29;99248.04;225326;1283;24252;-72
2023/05/13 12:59:28;;;;;;;2.90;2.60;;;;;;;21.42;41.45;99250.27;225359;1280;22542;-72
2023/05/13 13:04:30;;;;;;;2.70;2.40;;;;;;;21.49;42.04;99247.26;225290;1278;22551;-72
2023/05/13 13:09:32;;;;;;;4.90;2.40;;;;;;;21.53;42.61;99249.41;225347;1283;22536;-73
2023/05/13 13:14:35;;;;;;;5.00;2.50;;;;;;;21.58;42.84;99250.06;225377;1283;22580;-73
2023/05/13 13:19:37;;;;;;;2.60;2.40;;;;;;;21.44;42.82;99242.73;225382;1280;22578;-72
2023/05/13 13:24:42;;;;;;;2.70;2.30;;;;;;;21.07;42.85;99236.70;225378;1279;22550;-72
2023/05/13 13:29:53;;;;;;;4.10;2.60;;;;;;;20.75;43.11;99238.80;225399;1281;25770;-73
2023/05/13 13:34:56;;;;;;;3.60;2.20;;;;;;;20.55;43.66;99236.64;225406;1275;22559;-73
2023/05/13 13:39:59;;;;;;;3.10;2.30;;;;;;;20.28;43.90;99232.89;225392;1279;22556;-72
2023/05/13 13:45:12;;;;;;;4.80;2.90;;;;;;;19.97;43.85;99231.15;225400;1281;22526;-72
2023/05/13 13:50:16;;;;;;;3.00;2.20;;;;;;;19.72;44.31;99227.36;225395;1283;22585;-72
2023/05/13 13:55:20;;;;;;;3.90;2.60;;;;;;;19.65;44.81;99223.72;225400;1278;22595;-73
2023/05/13 14:00:22;;;;;;;3.80;2.60;;;;;;;19.65;45.20;99220.61;225299;1283;22562;-72
2023/05/13 14:05:25;;;;;;;3.30;2.50;;;;;;;19.67;45.17;99220.40;225398;1281;22655;-73
2023/05/13 14:10:30;;;;;;;3.10;2.30;;;;;;;19.65;44.75;99218.15;225274;1283;22542;-71
2023/05/13 14:15:37;;;;;;;4.50;2.70;;;;;;;19.60;44.89;99219.48;225355;1274;22683;-71
2023/05/13 14:20:40;;;;;;;4.50;2.80;;;;;;;19.56;45.20;99219.89;225473;1276;22558;-73
2023/05/13 14:25:43;;;;;;;4.80;2.50;;;;;;;19.45;45.47;99220.27;225420;1283;23293;-73
2023/05/13 14:30:46;;;;;;;5.20;2.90;;;;;;;19.29;45.72;99225.73;225404;1283;22550;-73
2023/05/13 14:35:48;;;;;;;4.90;2.50;;;;;;;19.13;46.09;99225.53;225397;1281;22568;-73
2023/05/13 14:40:51;;;;;;;4.10;2.60;;;;;;;18.96;46.31;99224.21;225395;1283;22572;-72
2023/05/13 14:45:53;;;;;;;4.50;2.50;;;;;;;18.87;46.58;99221.68;225355;1281;22540;-73
2023/05/13 14:51:09;;;;;;;3.70;2.70;;;;;;;18.89;46.70;99222.06;225394;1277;22546;-73
2023/05/13 14:56:11;;;;;;;3.50;2.60;;;;;;;18.95;46.59;99224.45;225344;1277;22543;-73
2023/05/13 15:01:21;;;;;;;3.50;2.30;;;;;;;18.97;46.43;99222.31;225384;1283;22540;-72
2023/05/13 15:06:24;;;;;;;5.80;2.50;;;;;;;19.04;46.54;99225.56;225257;1278;22551;-73
2023/05/13 15:11:27;;;;;;;4.90;2.50;;;;;;;19.04;46.46;99224.49;225425;1263;22569;-73
2023/05/13 15:16:29;;;;;;;3.30;2.00;;;;;;;19.04;46.45;99225.31;225360;1280;22498;-72
2023/05/13 15:21:31;;;;;;;2.70;2.40;;;;;;;19.08;46.47;99220.97;225323;1279;25311;-72
2023/05/13 15:26:44;;;;;;;3.10;2.20;;;;;;;19.13;46.19;99225.11;225422;1278;22553;-72
2023/05/13 15:31:56;;;;;;;3.80;2.60;;;;;;;19.12;46.17;99228.20;225385;1283;25988;-72
2023/05/13 15:37:02;;;;;;;5.60;2.50;;;;;;;19.10;46.53;99229.22;225346;1283;22595;-71
2023/05/13 15:42:05;;;;;;;4.40;2.60;;;;;;;19.10;46.35;99225.40;225335;1281;22593;-72
2023/05/13 15:47:07;;;;;;;3.60;2.50;;;;;;;19.05;46.20;99219.98;225468;1280;22554;-70
2023/05/13 15:52:14;;;;;;;4.30;2.30;;;;;;;18.98;46.23;99222.66;225384;1278;22669;-73
2023/05/13 15:57:18;;;;;;;3.40;2.30;;;;;;;18.83;46.33;99218.70;225438;1275;22668;-73
2023/05/13 16:02:20;;;;;;;3.90;2.80;;;;;;;18.68;46.61;99222.60;225463;1280;22555;-72
2023/05/13 16:07:25;;;;;;;3.40;2.40;;;;;;;18.47;47.03;99219.52;225448;1277;22543;-73
2023/05/13 16:12:33;;;;;;;3.90;2.70;;;;;;;18.26;47.38;99215.86;225460;1280;22550;-70
2023/05/13 16:17:39;;;;;;;7.00;3.70;;;;;;;18.09;47.55;99215.88;225314;1279;22539;-71
2023/05/13 16:22:42;;;;;;;5.50;3.70;;;;;;;17.90;47.87;99211.99;225407;1279;22558;-72
2023/05/13 16:27:54;;;;;;;5.00;3.90;;;;;;;17.72;48.28;99209.83;225388;1278;22554;-72
2023/05/13 16:32:59;;;;;;;8.30;4.10;;;;;;;17.57;48.76;99203.10;225359;1277;22553;-73
2023/05/13 16:38:04;;;;;;;4.60;3.40;;;;;;;17.45;49.09;99200.40;225435;1280;22552;-72
2023/05/13 16:43:07;;;;;;;5.30;3.10;;;;;;;17.34;48.87;99195.88;225322;1281;22569;-71
2023/05/13 16:48:09;;;;;;;4.10;3.10;;;;;;;17.22;49.16;99191.31;225434;1279;22664;-72
2023/05/13 16:53:12;;;;;;;3.50;3.20;;;;;;;17.10;49.55;99192.25;225358;1269;22543;-73
2023/05/13 16:58:17;;;;;;;3.50;3.20;;;;;;;16.99;49.98;99193.41;225439;1282;22567;-72
2023/05/13 17:03:22;;;;;;;3.80;3.30;;;;;;;16.91;50.22;99191.94;225306;1282;24267;-71
2023/05/13 17:08:24;;;;;;;6.20;3.20;;;;;;;16.84;50.18;99193.96;225414;1280;22558;-73
2023/05/13 17:13:29;;;;;;;2.90;2.50;;;;;;;16.75;50.45;99200.02;225422;1281;22730;-71
2023/05/13 17:18:35;;;;;;;3.10;2.40;;;;;;;16.62;50.63;99201.13;225344;1283;22601;-72
2023/05/13 17:23:43;;;;;;;3.50;2.60;;;;;;;16.50;50.45;99197.02;225349;1278;22548;-72
2023/05/13 17:29:05;;;;;;;3.40;2.70;;;;;;;16.38;50.81;99201.28;225349;1283;22565;-73
2023/05/13 17:34:14;;;;;;;2.40;2.20;;;;;;;16.29;50.78;99203.89;225405;1281;25276;-71
2023/05/13 17:39:16;;;;;;;2.80;2.40;;;;;;;16.16;50.73;99205.71;225409;1280;22556;-72
2023/05/13 17:44:41;;;;;;;;;;;;;;;;;;;;;
2023/05/13 17:50:13;;;;;;;3.70;2.50;;;;;;;15.80;51.06;99206.46;225465;1283;22544;-71
2023/05/13 17:55:31;;;;;;;4.30;2.60;;;;;;;15.59;51.08;99209.02;225319;1283;22549;-72
2023/05/13 18:00:44;;;;;;;6.40;3.50;;;;;;;15.35;51.26;99214.96;225430;1280;25332;-72
2023/05/13 18:05:47;;;;;;;4.00;3.40;;;;;;;15.11;51.56;99216.23;225437;1279;22546;-72
2023/05/13 18:10:55;;;;;;;3.30;2.90;;;;;;;14.85;52.09;99220.58;225501;1279;22553;-72
2023/05/13 18:16:10;;;;;;;3.40;2.60;;;;;;;14.56;52.42;99221.83;225342;1281;22583;-71
2023/05/13 18:21:18;;;;;;;3.70;3.00;;;;;;;14.26;52.86;99228.44;225454;1283;22557;-72
2023/05/13 18:26:31;;;;;;;3.80;3.30;;;;;;;14.01;53.32;99231.58;225416;1279;22553;-71
2023/05/13 18:32:15;;;;;;;4.10;3.20;;;;;;;13.75;53.61;99237.36;225417;1283;22542;-72
2023/05/13 18:37:18;;;;;;;5.00;4.00;;;;;;;13.55;54.17;99241.50;225480;1281;22532;-72
2023/05/13 18:42:23;;;;;;;6.80;4.50;;;;;;;13.38;54.46;99248.51;225451;1279;22523;-71
2023/05/13 18:47:29;;;;;;;5.10;4.40;;;;;;;13.20;54.81;99244.95;225430;1283;22543;-72
2023/05/13 18:52:43;;;;;;;8.60;5.40;;;;;;;13.00;55.13;99254.52;225448;1283;22550;-71
2023/05/13 18:57:46;;;;;;;8.80;6.00;;;;;;;12.82;55.51;99253.11;225351;1283;22540;-71
2023/05/13 19:02:47;;;;;;;5.60;4.30;;;;;;;12.63;55.86;99250.73;225470;1283;24253;-73
2023/05/13 19:07:50;;;;;;;6.70;4.20;;;;;;;12.44;56.22;99259.05;225420;1280;22640;-73
2023/05/13 19:12:53;;;;;;;5.00;3.80;;;;;;;12.25;56.57;99254.98;225455;1278;22543;-72
2023/05/13 19:17:57;;;;;;;5.20;4.70;;;;;;;12.10;56.86;99257.25;225368;1281;22571;-72
2023/05/13 19:23:00;;;;;;;7.30;5.20;;;;;;;11.97;57.17;99256.12;225428;1283;22546;-71
2023/05/13 19:28:03;;;;;;;7.80;5.50;;;;;;;11.84;57.34;99260.92;225428;1281;22544;-71
2023/05/13 19:33:08;;;;;;;6.50;5.10;;;;;;;11.69;57.55;99265.63;225366;1272;22543;-72
2023/05/13 19:38:13;;;;;;;10.70;6.10;;;;;;;11.54;57.98;99272.82;225455;1283;22543;-71
2023/05/13 19:43:15;;;;;;;12.40;8.40;;;;;;;11.39;58.21;99276.91;225490;1280;22564;-74
2023/05/13 19:48:20;;;;;;;9.70;7.20;;;;;;;11.24;58.51;99287.64;225465;1280;22550;-72
2023/05/13 19:58:34;;;;;;;10.00;7.80;;;;;;;10.95;59.41;99277.52;225371;1278;22560;-72
2023/05/13 20:03:36;;;;;;;10.90;6.80;;;;;;;10.83;59.63;99272.16;225367;1281;22573;-71
2023/05/13 20:08:42;;;;;;;14.30;7.30;;;;;;;10.75;60.18;99272.45;225491;1280;23275;-70
2023/05/13 20:13:44;;;;;;;10.80;7.90;;;;;;;10.67;60.11;99269.31;225362;1282;22540;-71
2023/05/13 20:18:52;;;;;;;14.80;8.70;;;;;;;10.59;60.51;99266.83;225479;1281;22552;-72
2023/05/13 20:23:55;;;;;;;15.00;9.80;;;;;;;10.52;60.64;99265.36;225380;1282;25265;-73
2023/05/13 20:28:57;;;;;;;13.40;8.90;;;;;;;10.45;61.18;99262.59;225450;1278;25496;-71
2023/05/13 20:34:02;;;;;;;13.40;8.90;;;;;;;10.39;61.16;99259.10;225472;1281;22579;-71
2023/05/13 20:39:07;;;;;;;15.80;9.90;;;;;;;10.32;61.65;99261.39;225355;1283;22547;-71
2023/05/13 20:44:11;;;;;;;12.10;9.20;;;;;;;10.22;61.81;99260.48;225499;1278;22547;-71
2023/05/13 20:49:14;;;;;;;15.10;9.90;;;;;;;10.12;62.28;99255.63;225364;1283;22543;-71
2023/05/13 20:54:19;;;;;;;15.60;9.50;;;;;;;10.01;62.34;99254.59;225472;1283;22586;-72
2023/05/13 20:59:21;;;;;;;13.20;8.30;;;;;;;9.93;62.77;99254.51;225393;1281;22550;-72
2023/05/13 21:04:27;;;;;;;12.00;9.30;;;;;;;9.88;63.20;99253.11;225434;1281;22547;-72
2023/05/13 21:09:33;;;;;;;12.00;8.60;;;;;;;9.83;63.77;99251.77;225488;1283;22868;-72
2023/05/13 21:14:45;;;;;;;11.80;8.60;;;;;;;9.73;63.70;99249.15;225443;1283;22574;-72
2023/05/13 21:19:48;;;;;;;11.50;9.00;;;;;;;9.61;64.10;99250.14;225403;1281;22557;-72
2023/05/13 21:24:50;;;;;;;13.80;9.50;;;;;;;9.51;64.30;99249.13;225511;1281;22535;-73
2023/05/13 21:29:52;;;;;;;16.20;10.40;;;;;;;9.45;64.75;99252.05;225472;1281;22544;-73
2023/05/13 21:34:55;;;;;;;16.90;12.00;;;;;;;9.46;64.95;99258.34;225481;1278;22559;-72
2023/05/13 21:40:00;;;;;;;16.80;11.40;;;;;;;9.47;65.21;99255.73;225367;1283;22530;-73
2023/05/13 21:45:06;;;;;;;17.10;12.70;;;;;;;9.49;65.15;99246.40;225415;1281;22558;-72
2023/05/13 21:50:34;;;;;;;14.00;11.30;;;;;;;9.45;65.18;99250.16;225480;1283;22665;-71
2023/05/13 21:55:39;;;;;;;18.00;12.70;;;;;;;9.39;64.94;99250.00;225515;1279;22546;-71
2023/05/13 22:00:41;;;;;;;14.40;10.00;;;;;;;9.32;65.49;99244.95;225445;1281;22585;-72
2023/05/13 22:05:47;;;;;;;15.00;9.70;;;;;;;9.25;65.48;99239.42;225423;1283;22547;-71
2023/05/13 22:10:49;;;;;;;11.70;8.90;;;;;;;9.18;65.80;99238.92;225501;1281;22945;-71
2023/05/13 22:15:51;;;;;;;10.60;8.50;;;;;;;9.13;65.77;99240.83;225453;1278;22613;-71
2023/05/13 22:21:00;;;;;;;12.10;8.90;;;;;;;9.09;66.28;99240.05;225462;1283;22546;-71
2023/05/13 22:26:03;;;;;;;11.20;8.90;;;;;;;9.05;66.51;99238.69;225456;1280;22735;-71
2023/05/13 22:31:07;;;;;;;13.00;9.20;;;;;;;8.99;66.83;99232.95;225478;1281;22562;-72
2023/05/13 22:36:10;;;;;;;13.20;9.10;;;;;;;8.90;66.78;99231.88;225387;1281;22546;-71
2023/05/13 22:41:17;;;;;;;14.90;10.20;;;;;;;8.79;66.70;99234.08;225162;1283;223794;-71
2023/05/13 22:46:22;;;;;;;15.00;10.10;;;;;;;8.70;66.97;99236.63;225503;1283;22549;-71
2023/05/13 22:51:24;;;;;;;14.20;10.10;;;;;;;8.64;67.36;99241.64;225516;1281;22553;-71
2023/05/13 22:56:27;;;;;;;19.00;10.60;;;;;;;8.60;67.70;99239.81;225431;1281;22551;-72
2023/05/13 23:01:29;;;;;;;15.50;10.10;;;;;;;8.57;68.00;99242.09;225537;1282;22583;-71
2023/05/13 23:06:35;;;;;;;14.70;10.30;;;;;;;8.53;67.89;99241.12;225519;1279;22575;-70
2023/05/13 23:11:48;;;;;;;14.20;10.80;;;;;;;8.48;67.85;99231.06;225524;1283;22542;-70
2023/05/13 23:16:50;;;;;;;14.50;10.30;;;;;;;8.42;68.09;99227.63;225499;1281;22548;-71
2023/05/13 23:21:56;;;;;;;15.90;10.90;;;;;;;8.39;68.26;99221.52;225350;1283;22560;-71
2023/05/13 23:26:58;;;;;;;14.20;10.90;;;;;;;8.36;68.59;99216.71;225502;1281;22553;-70
2023/05/13 23:32:05;;;;;;;15.50;10.40;;;;;;;8.35;68.68;99213.69;225565;1283;22556;-72
2023/05/13 23:37:08;;;;;;;16.40;10.80;;;;;;;8.34;69.02;99210.91;225397;1283;22551;-69
2023/05/13 23:42:11;;;;;;;14.70;10.50;;;;;;;8.33;68.72;99207.58;225527;1283;22548;-70
2023/05/13 23:47:19;;;;;;;13.50;9.70;;;;;;;8.28;69.04;99208.06;225501;1281;22542;-72